プーケット の空港の天気 - METARとTAF

プーケット国際空港 ( VTSP / HKT ) - タイ プーケット県
飛行場実況気象(Metar)
観測時間01/20 08:00 ICT (01/20 01:00 UTC)
風向・風速東北東 3m/s
視程8000m
天気現象
全天の4割程度の雲 雲底高度 490m
全天の4割程度の雲 雲底高度 550m
全天の8割程度の雲 雲底高度 3050m
気温26℃
湿度84%
気圧1012hPa
METARVTSP 200100Z 06005KT 340V120 8000 SCT016 SCT018 BKN100 26/23 Q1012 NOSIG
過去の天気等 Google飛行場航空写真 Wunderground天気予報

過去48時間のMETAR

飛行場予報(TAF)
発表時間: 1/20 06:00 ICT (1/19 23:00 UTC)
予報対象時間: 20日7時 ICT ~ 21日13時 ICT
風向・風速東 3m/s
視程9,000m
少しの雲 雲底高度 610m
全天の8割程度の雲 雲底高度 3,050m
20日17時 ICT ~ 20日20時 ICT に 確率 40% で一時的に
風向・風速不定 5m/s 瞬間風速 10m/s
視程3,000m
天気現象雷雨
少しの積乱雲 雲底高度 490m
全天の4割程度の雲 雲底高度 610m
全天の8割程度の雲 雲底高度 3,050m
20日20時 ICT ~ 20日22時 ICT に徐々に
風向・風速不定 1m/s
視程7,000m
21日6時 ICT ~ 21日8時 ICT に徐々に
風向・風速東 3m/s
視程9,000m
TAF VTSP 192300Z 2000/2106 08006KT 9000 FEW020 BKN100
PROB40 TEMPO 2010/2013 VRB10G20KT 3000 TSRA FEW016CB SCT020 BKN100
BECMG 2013/2015 VRB01KT 7000
BECMG 2023/2101 08006KT 9000